Aérodrome :
LOGIN :

S'inscrire | Disclaimer

   EN    FR    IT 

 










Légende :    VFR   VFR Marginal   IFR   IFR Intensif   IFR Très Intensif
Visi : 
Plafond : 
>= 8 km
>= 3000ft
5 à 8 km
1000 à 3000 ft
1500m à 5 km
500 à 1000 ft
800 à 1500m
200 à 500 ft
< 800m
< 200 ft
Symboles :   Orages  Brouillard  Fortes neiges  Fortes précipitations  Vent > 20 kt
SIGMETs :   Divers  Orages  Givrage  Turbulence  Onde Orograph.  Cendres Volcan.






- Altitude de l'aérodrome : 1521 ft
- Code IATA : NCY


LFLP - Annecy

DERNIER METAR :
  • 221930Z AUTO 02004KT 330V060 9999 BKN018 14/11 Q1020

METARs EXPIRÉS :
  • 221900Z AUTO 01005KT 330V030 9999 BKN019 14/11 Q1019
  • 221830Z AUTO 34004KT 9999 OVC018 14/12 Q1020
  • 221800Z AUTO 36006KT 320V060 9999 OVC018 14/12 Q1020 NOSIG
  • 221730Z AUTO 36008KT 9999 OVC017 14/11 Q1019 NOSIG
  • 221700Z AUTO 01007KT 9999 OVC017 14/11 Q1019 NOSIG

TAF TAF LFLP
Valide du 22 à 15h jusqu'au 23 à 15h UTC


221400Z 2215/2315 02005KT 9999 BKN016
PROB40
TEMPO 2300/2308 VRB02KT BKN008



MET'MAP, la Météo Aéronautique d'un coup d'oeil ! - Copyright ORBIFLY Décembre 2007 - Disclaimer

ORBIFLY MET'MAP TEAM :

Programmation & Développement : Alexandra Zaïnal
Conception & Développement : Baudouin d'Aumeries
Co-Programmation & Développement : Marc-Olivier Méhu
Soutien technique & logistique : Manuel Goepfert

Contact : metmap@orbifly.com




SOURCES & CREDITS :

   NOAA